Kernville, Oregon
Current Conditions -  °F | °C
As of 2:55 PM on Saturday 25 Oct 2014 (Local Time) from KONP Reporting Station
Moderate Rain Moderate Rain  
Wind Chill: 57°   Ceiling: 600
Heat Index: 57°   Visibility: 2mi
Dew Point: 55°   Wind: 31mph
Humidity: 94%   Direction: 200°SSW
Pressure: 29.46"   Gusts: 46mph
Location:  44.9454°N, 123.861°W
Report Text: KONP 252155Z AUTO 20027G40KT 2SM RA BKN006 OVC014 14/13 A2946 RMK AO2 P0004
Loading
Personal Weather Stations






























Interactive Weather Map
Tropical Storm Tracking
New forecast layout! Learn more

10-Day Weather Forecast

Advertisements
Track Severe Weather on mobile